Cottonwood Point, Missouri
Current Conditions -  °F | °C
As of 6:53 AM on Thursday 30 Oct 2014 (Local Time) from KHKA Reporting Station
Clear Clear  
Wind Chill: 42°   Ceiling: Unl
Heat Index: 42°   Visibility: 10mi
Dew Point: 38°   Wind: 3mph
Humidity: 85%   Direction: 80°E
Pressure: 30.17"   Gusts: NA
Location:  36.1543°N, 89.7088°W
Report Text: KHKA 301153Z AUTO 08003KT 10SM CLR 06/03 A3017 RMK AO2 SLP215 T00560033 10072 20050 50002
Loading
Personal Weather Stations






























Interactive Weather Map
Tropical Storm Tracking
New forecast layout! Learn more

10-Day Weather Forecast

Advertisements
Track Severe Weather on mobile